createdAt,value
2016-08-19T00:00:01.061Z,88.19
2016-08-19T00:01:01.057Z,88.29
2016-08-19T00:02:01.048Z,88.09
2016-08-19T00:03:01.037Z,88.57
2016-08-19T00:04:01.024Z,88.95
2016-08-19T00:05:01.018Z,89.43
2016-08-19T00:06:01.008Z,90.01
2016-08-19T00:07:00.994Z,89.91
2016-08-19T00:08:00.991Z,90.01
2016-08-19T00:09:00.974Z,90.1
2016-08-19T00:10:00.966Z,90.58
2016-08-19T00:11:00.956Z,90.2
2016-08-19T00:12:00.944Z,90.2
2016-08-19T00:13:01.642Z,90.39
2016-08-19T00:14:00.926Z,90.39
2016-08-19T00:15:00.923Z,89.91
2016-08-19T00:16:01.639Z,89.77
2016-08-19T00:17:00.897Z,90.48
2016-08-19T00:18:00.885Z,91.39
2016-08-19T00:19:00.878Z,91.59
2016-08-19T00:20:00.868Z,91.25
2016-08-19T00:21:00.860Z,91.59
2016-08-19T00:22:01.554Z,91.59
2016-08-19T00:23:00.856Z,91.97
2016-08-19T00:24:01.540Z,91.97
2016-08-19T00:25:00.818Z,91.49
2016-08-19T00:26:01.531Z,91.2
2016-08-19T00:27:00.799Z,91.11
2016-08-19T00:28:01.499Z,91.39
2016-08-19T00:29:00.788Z,91.68
2016-08-19T00:30:00.769Z,90.82
2016-08-19T00:31:00.762Z,90.82
2016-08-19T00:32:00.752Z,91.2
2016-08-19T00:33:01.449Z,91.49
2016-08-19T00:34:00.729Z,91.49
2016-08-19T00:35:01.427Z,92.07
2016-08-19T00:36:00.712Z,92.07
2016-08-19T00:37:00.699Z,92.54
2016-08-19T00:38:00.691Z,92.16
2016-08-19T00:39:00.687Z,92.83
2016-08-19T00:40:00.672Z,91.88
2016-08-19T00:41:01.370Z,91.78
2016-08-19T00:42:01.356Z,91.78
2016-08-19T00:43:00.643Z,91.97
2016-08-19T00:44:00.633Z,91.97
2016-08-19T00:45:00.622Z,92.07
2016-08-19T00:46:00.610Z,91.97
2016-08-19T00:47:00.607Z,91.59
2016-08-19T00:48:01.300Z,92.16
2016-08-19T00:49:00.580Z,91.97
2016-08-19T00:50:00.580Z,92.07
2016-08-19T00:51:00.565Z,92.74
2016-08-19T00:52:00.552Z,92.35
2016-08-19T00:53:01.251Z,92.74
2016-08-19T00:54:00.533Z,93.31
2016-08-19T00:55:00.532Z,93.79
2016-08-19T00:56:01.224Z,93.79
2016-08-19T00:57:00.503Z,93.69
2016-08-19T00:58:00.496Z,93.6
2016-08-19T00:59:00.487Z,94.07
2016-08-19T01:00:01.181Z,94.07
2016-08-19T01:01:00.462Z,93.69
2016-08-19T01:02:00.455Z,93.74
2016-08-19T01:03:00.443Z,93.5
2016-08-19T01:04:00.436Z,93.26
2016-08-19T01:05:01.131Z,94.41
2016-08-19T01:06:00.410Z,93.74
2016-08-19T01:07:00.407Z,93.93
2016-08-19T01:08:00.396Z,93.93
2016-08-19T01:09:01.093Z,94.51
2016-08-19T01:10:01.077Z,94.51
2016-08-19T01:11:00.359Z,94.41
2016-08-19T01:12:00.352Z,94.89
2016-08-19T01:13:01.048Z,94.7
2016-08-19T01:14:01.043Z,95.36
2016-08-19T01:15:01.032Z,95.17
2016-08-19T01:16:00.312Z,94.7
2016-08-19T01:17:00.302Z,94.51
2016-08-19T01:18:00.290Z,94.6
2016-08-19T01:19:00.989Z,94.7
2016-08-19T01:20:00.981Z,94.6
2016-08-19T01:21:00.263Z,94.41
2016-08-19T01:22:00.250Z,94.89
2016-08-19T01:23:00.242Z,94.51
2016-08-19T01:24:00.941Z,94.51
2016-08-19T01:25:00.219Z,94.41
2016-08-19T01:26:00.916Z,94.7
2016-08-19T01:27:00.200Z,94.51
2016-08-19T01:28:00.189Z,94.7
2016-08-19T01:29:00.184Z,94.7
2016-08-19T01:30:00.167Z,94.6
2016-08-19T01:31:00.160Z,94.31
2016-08-19T01:32:00.859Z,94.79
2016-08-19T01:33:00.137Z,94.7
2016-08-19T01:34:00.128Z,94.79
2016-08-19T01:35:00.119Z,94.98
2016-08-19T01:36:00.810Z,94.6
2016-08-19T01:37:00.101Z,94.41
2016-08-19T01:38:00.089Z,94.7
2016-08-19T01:39:00.078Z,94.41
2016-08-19T01:40:00.065Z,94.79
2016-08-19T01:41:00.766Z,95.75
2016-08-19T01:42:00.047Z,95.46
2016-08-19T01:43:00.036Z,95.56
2016-08-19T01:44:00.028Z,95.46
2016-08-19T01:45:00.721Z,96.03
2016-08-19T01:46:00.711Z,96.03
2016-08-19T01:46:59.991Z,96.8
2016-08-19T01:47:59.984Z,96.84
2016-08-19T01:48:59.974Z,96.66
2016-08-19T01:49:59.962Z,96.66
2016-08-19T01:50:59.953Z,96.17
2016-08-19T01:51:59.943Z,96.27
2016-08-19T01:52:59.935Z,96.46
2016-08-19T01:53:59.923Z,96.66
2016-08-19T01:54:59.910Z,96.84
2016-08-19T01:56:00.611Z,96.56
2016-08-19T01:56:59.896Z,96.84
2016-08-19T01:57:59.880Z,96.75
2016-08-19T01:58:59.868Z,96.75
2016-08-19T01:59:59.860Z,97.03
2016-08-19T02:00:59.848Z,97.13
2016-08-19T02:01:59.837Z,97.03
2016-08-19T02:03:00.535Z,97.13
2016-08-19T02:03:59.819Z,97.23
2016-08-19T02:05:00.516Z,97.03
2016-08-19T02:05:59.800Z,97.03
2016-08-19T02:06:59.785Z,97.52
2016-08-19T02:07:59.776Z,97.71
2016-08-19T02:09:00.479Z,97.8
2016-08-19T02:09:59.756Z,97.32
2016-08-19T02:10:59.745Z,97.61
2016-08-19T02:11:59.735Z,97.61
2016-08-19T02:12:59.723Z,97.71
2016-08-19T02:14:59.701Z,97.61
2016-08-19T02:16:00.398Z,97.71
2016-08-19T02:16:59.681Z,97.13
2016-08-19T02:17:59.671Z,97.23
2016-08-19T02:18:59.660Z,97.61
2016-08-19T02:19:59.656Z,97.8
2016-08-19T02:20:59.637Z,97.32
2016-08-19T02:21:59.629Z,97.8
2016-08-19T02:22:59.617Z,97.61
2016-08-19T02:23:59.605Z,97.71
2016-08-19T02:25:00.305Z,98.18
2016-08-19T02:25:59.590Z,98.37
2016-08-19T02:26:59.579Z,98.75
2016-08-19T02:27:59.564Z,99.33
2016-08-19T02:29:00.263Z,99.33
2016-08-19T02:29:59.547Z,98.66
2016-08-19T02:30:59.532Z,98.75
2016-08-19T02:31:59.524Z,98.71
2016-08-19T02:32:59.519Z,98.85
2016-08-19T02:33:59.505Z,98.61
2016-08-19T02:34:59.498Z,99.14
2016-08-19T02:35:59.480Z,99.14
2016-08-19T02:36:59.473Z,99.23
2016-08-19T02:37:59.458Z,99.14
2016-08-19T02:38:59.450Z,99.14
2016-08-19T02:39:59.441Z,99.8
2016-08-19T02:40:59.442Z,99.8
2016-08-19T02:41:59.421Z,99.62
2016-08-19T02:42:59.405Z,99.99
2016-08-19T02:43:59.398Z,99.99
2016-08-19T02:44:59.385Z,99.99
2016-08-19T02:45:59.381Z,99.99
2016-08-19T02:46:59.367Z,99.99
2016-08-19T02:47:59.356Z,99.99
2016-08-19T02:48:59.349Z,99.99
2016-08-19T02:49:59.345Z,99.99
2016-08-19T02:50:59.324Z,99.9
2016-08-19T02:52:00.036Z,99.99
2016-08-19T02:52:59.300Z,99.9
2016-08-19T02:53:59.291Z,99.99
2016-08-19T02:54:59.279Z,99.99
2016-08-19T02:55:59.979Z,99.99
2016-08-19T02:56:59.262Z,99.99
2016-08-19T02:57:59.253Z,99.8
2016-08-19T02:58:59.237Z,99.99
2016-08-19T02:59:59.227Z,99.99
2016-08-19T03:00:59.214Z,99.9
2016-08-19T03:01:59.206Z,99.85
2016-08-19T03:02:59.196Z,99.99
2016-08-19T03:03:59.183Z,99.99
2016-08-19T03:04:59.175Z,99.99
2016-08-19T03:05:59.168Z,99.95
2016-08-19T03:06:59.874Z,99.99
2016-08-19T03:07:59.158Z,99.99
2016-08-19T03:08:59.146Z,99.99
2016-08-19T03:09:59.836Z,99.99
2016-08-19T03:10:59.837Z,99.85
2016-08-19T03:11:59.100Z,99.57
2016-08-19T03:12:59.088Z,99.85
2016-08-19T03:13:59.787Z,99.66
2016-08-19T03:14:59.066Z,99.76
2016-08-19T03:15:59.065Z,99.57
2016-08-19T03:16:59.047Z,99.76
2016-08-19T03:17:59.742Z,99.57
2016-08-19T03:18:59.026Z,98.99
2016-08-19T03:19:59.724Z,98.71
2016-08-19T03:20:59.001Z,99.47
2016-08-19T03:21:58.993Z,98.99
2016-08-19T03:22:58.983Z,99.28
2016-08-19T03:23:58.972Z,98.71
2016-08-19T03:24:59.673Z,98.61
2016-08-19T03:25:58.947Z,99.28
2016-08-19T03:26:59.648Z,98.99
2016-08-19T03:27:58.927Z,99.18
2016-08-19T03:28:58.915Z,99.76
2016-08-19T03:29:58.909Z,99.66
2016-08-19T03:30:58.897Z,99.95
2016-08-19T03:31:58.887Z,99.76
2016-08-19T03:32:59.582Z,99.42
2016-08-19T03:33:59.569Z,99.85
2016-08-19T03:34:58.859Z,99.99
2016-08-19T03:35:58.842Z,99.99
2016-08-19T03:36:58.835Z,99.99
2016-08-19T03:37:58.819Z,99.99
2016-08-19T03:38:58.806Z,99.99
2016-08-19T03:39:58.798Z,99.99
2016-08-19T03:40:59.493Z,99.99
2016-08-19T03:41:58.775Z,99.99
2016-08-19T03:42:58.764Z,99.99
2016-08-19T03:43:58.754Z,99.99
2016-08-19T03:44:58.742Z,99.99
2016-08-19T03:45:58.731Z,99.99
2016-08-19T03:46:58.719Z,99.99
2016-08-19T03:47:58.714Z,99.99
2016-08-19T03:48:59.407Z,99.99
2016-08-19T03:49:58.690Z,99.99
2016-08-19T03:50:58.678Z,99.99
2016-08-19T03:51:58.666Z,99.99
2016-08-19T03:52:58.668Z,99.99
2016-08-19T03:53:58.659Z,99.99
2016-08-19T03:54:58.639Z,99.99
2016-08-19T03:55:58.623Z,99.99
2016-08-19T03:56:59.322Z,99.99
2016-08-19T03:57:58.600Z,99.99
2016-08-19T03:58:59.304Z,99.99
2016-08-19T03:59:59.289Z,99.99
2016-08-19T04:00:58.571Z,99.99
2016-08-19T04:01:58.559Z,99.99
2016-08-19T04:02:58.569Z,99.99
2016-08-19T04:03:59.244Z,99.99
2016-08-19T04:04:58.527Z,99.99
2016-08-19T04:05:58.519Z,99.99
2016-08-19T04:06:58.505Z,99.99
2016-08-19T04:07:58.497Z,99.99
2016-08-19T04:08:58.481Z,99.99
2016-08-19T04:09:59.198Z,99.99
2016-08-19T04:10:58.461Z,99.99
2016-08-19T04:11:59.158Z,99.99
2016-08-19T04:12:59.144Z,99.99
2016-08-19T04:13:59.134Z,99.99
2016-08-19T04:14:58.420Z,99.99
2016-08-19T04:15:58.405Z,99.99
2016-08-19T04:16:58.393Z,99.99
2016-08-19T04:17:59.091Z,99.99
2016-08-19T04:18:59.082Z,99.99
2016-08-19T04:19:58.362Z,99.99
2016-08-19T04:20:59.062Z,99.99
2016-08-19T04:21:58.341Z,99.99
2016-08-19T04:22:58.329Z,99.99
2016-08-19T04:23:58.325Z,99.99
2016-08-19T04:24:59.015Z,99.99
2016-08-19T04:25:58.295Z,99.99
2016-08-19T04:26:58.351Z,99.99
2016-08-19T04:27:58.275Z,99.99
2016-08-19T04:28:58.259Z,99.99
2016-08-19T04:29:58.973Z,99.99
2016-08-19T04:30:58.237Z,99.99
2016-08-19T04:31:58.284Z,99.99
2016-08-19T04:32:58.929Z,99.99
2016-08-19T04:33:58.207Z,99.99
2016-08-19T04:34:58.195Z,99.99
2016-08-19T04:35:58.183Z,99.99
2016-08-19T04:36:58.171Z,99.99
2016-08-19T04:37:58.870Z,99.99
2016-08-19T04:38:58.157Z,99.99
2016-08-19T04:39:58.141Z,99.99
2016-08-19T04:40:58.834Z,99.99
2016-08-19T04:41:58.115Z,99.99
2016-08-19T04:42:58.104Z,99.99
2016-08-19T04:43:58.093Z,99.99
2016-08-19T04:44:58.087Z,99.99
2016-08-19T04:45:58.078Z,99.99
2016-08-19T04:46:58.064Z,99.99
2016-08-19T04:47:58.759Z,99.99
2016-08-19T04:48:58.745Z,99.99
2016-08-19T04:49:58.031Z,99.99
2016-08-19T04:50:58.724Z,99.99
2016-08-19T04:51:58.006Z,99.99
2016-08-19T04:52:57.994Z,99.99
2016-08-19T04:53:57.983Z,99.99
2016-08-19T04:54:58.676Z,99.99
2016-08-19T04:55:58.669Z,99.99
2016-08-19T04:56:57.951Z,99.99
2016-08-19T04:57:58.648Z,99.99
2016-08-19T04:58:57.931Z,99.99
2016-08-19T04:59:58.622Z,99.99
2016-08-19T05:00:57.907Z,99.99
2016-08-19T05:01:57.899Z,99.99
2016-08-19T05:02:57.879Z,99.99
2016-08-19T05:03:58.579Z,99.99
2016-08-19T05:04:57.861Z,99.99
2016-08-19T05:05:57.850Z,99.99
2016-08-19T05:06:57.848Z,99.99
2016-08-19T05:07:57.823Z,99.99
2016-08-19T05:08:57.817Z,99.99
2016-08-19T05:09:57.806Z,99.99
2016-08-19T05:10:57.791Z,99.99
2016-08-19T05:11:57.782Z,99.99
2016-08-19T05:12:58.480Z,99.99
2016-08-19T05:13:57.761Z,99.99
2016-08-19T05:14:57.749Z,99.99
2016-08-19T05:15:58.442Z,99.99
2016-08-19T05:16:58.442Z,99.99
2016-08-19T05:17:57.718Z,99.99
2016-08-19T05:18:57.706Z,99.99
2016-08-19T05:19:57.695Z,99.99
2016-08-19T05:20:57.686Z,99.99
2016-08-19T05:21:58.380Z,99.99
2016-08-19T05:22:57.659Z,99.99
2016-08-19T05:23:57.650Z,99.99
2016-08-19T05:24:57.640Z,99.99
2016-08-19T05:25:58.336Z,99.99
2016-08-19T05:26:57.616Z,99.99
2016-08-19T05:27:57.608Z,99.99
2016-08-19T05:28:58.301Z,99.99
2016-08-19T05:29:57.587Z,99.99
2016-08-19T05:30:57.573Z,99.99
2016-08-19T05:31:57.567Z,99.99
2016-08-19T05:32:57.550Z,99.99
2016-08-19T05:33:57.549Z,99.99
2016-08-19T05:34:57.531Z,99.99
2016-08-19T05:35:58.239Z,99.99
2016-08-19T05:36:58.217Z,99.99
2016-08-19T05:37:57.495Z,99.99
2016-08-19T05:38:57.488Z,99.99
2016-08-19T05:39:57.478Z,99.99
2016-08-19T05:40:57.467Z,99.99
2016-08-19T05:41:58.162Z,99.99
2016-08-19T05:42:58.151Z,99.99
2016-08-19T05:43:58.144Z,99.99
2016-08-19T05:44:57.425Z,99.99
2016-08-19T05:45:57.412Z,99.99
2016-08-19T05:46:57.404Z,99.99
2016-08-19T05:47:57.389Z,99.99
2016-08-19T05:48:58.103Z,99.99
2016-08-19T05:49:58.078Z,99.99
2016-08-19T05:50:58.070Z,99.99
2016-08-19T05:51:57.356Z,99.99
2016-08-19T05:52:58.044Z,99.99
2016-08-19T05:53:57.332Z,99.99
2016-08-19T05:54:58.030Z,99.99
2016-08-19T05:55:58.021Z,99.99
2016-08-19T05:56:58.025Z,99.99
2016-08-19T05:57:57.991Z,99.99
2016-08-19T05:59:12.158Z,99.99
2016-08-19T05:59:57.260Z,99.99
2016-08-19T06:00:57.251Z,99.99
2016-08-19T06:01:57.256Z,99.99
2016-08-19T06:02:57.938Z,99.99
2016-08-19T06:03:57.225Z,99.99
2016-08-19T06:04:57.215Z,99.99
2016-08-19T06:05:57.912Z,99.99
2016-08-19T06:06:57.191Z,99.99
2016-08-19T06:07:57.179Z,99.99
2016-08-19T06:08:57.168Z,99.99
2016-08-19T06:09:57.159Z,99.99
2016-08-19T06:10:57.853Z,99.99
2016-08-19T06:11:57.845Z,99.99
2016-08-19T06:12:57.832Z,99.99
2016-08-19T06:13:57.114Z,99.99
2016-08-19T06:14:57.110Z,99.99
2016-08-19T06:15:57.802Z,99.99
2016-08-19T06:16:57.085Z,99.99
2016-08-19T06:17:57.075Z,99.99
2016-08-19T06:18:57.062Z,99.99
2016-08-19T06:19:57.056Z,99.99
2016-08-19T06:20:57.043Z,99.99
2016-08-19T06:21:57.742Z,99.99
2016-08-19T06:22:57.026Z,99.99
2016-08-19T06:23:57.016Z,99.99
2016-08-19T06:24:57.707Z,99.99
2016-08-19T06:25:56.992Z,99.99
2016-08-19T06:26:56.989Z,99.99
2016-08-19T06:27:56.976Z,99.99
2016-08-19T06:28:56.962Z,99.99
2016-08-19T06:29:57.659Z,99.99
2016-08-19T06:30:56.942Z,99.99
2016-08-19T06:31:56.933Z,99.99
2016-08-19T06:32:56.924Z,99.99
2016-08-19T06:33:56.915Z,99.99
2016-08-19T06:34:56.904Z,99.99
2016-08-19T06:35:56.893Z,99.99
2016-08-19T06:36:57.594Z,99.99
2016-08-19T06:37:56.875Z,99.99
2016-08-19T06:38:56.862Z,99.99
2016-08-19T06:39:57.561Z,99.99
2016-08-19T06:40:56.843Z,99.99
2016-08-19T06:41:56.836Z,99.99
2016-08-19T06:42:56.824Z,99.48
2016-08-19T06:43:56.813Z,99.1
2016-08-19T06:44:56.804Z,99.29
2016-08-19T06:45:57.499Z,99.1
2016-08-19T06:46:56.783Z,99
2016-08-19T06:47:57.481Z,99.76
2016-08-19T06:48:57.475Z,99.76
2016-08-19T06:49:56.760Z,98.9
2016-08-19T06:50:57.453Z,98.28
2016-08-19T06:51:57.443Z,98.28
2016-08-19T06:52:56.734Z,98.09
2016-08-19T06:53:56.720Z,97.33
2016-08-19T06:54:56.707Z,96.27
2016-08-19T06:55:57.414Z,96.66
2016-08-19T06:56:56.689Z,95.98
2016-08-19T06:57:56.681Z,96.08
2016-08-19T06:58:56.668Z,95.31
2016-08-19T06:59:56.659Z,95.61
2016-08-19T07:00:56.649Z,95.03
2016-08-19T07:01:57.350Z,95.31
2016-08-19T07:02:56.629Z,94.45
2016-08-19T07:03:56.622Z,93.69
2016-08-19T07:04:56.613Z,93.35
2016-08-19T07:05:56.604Z,93.16
2016-08-19T07:06:56.595Z,92.78
2016-08-19T07:07:56.583Z,93.26
2016-08-19T07:08:56.578Z,92.78
2016-08-19T07:09:56.571Z,93.07
2016-08-19T07:10:56.560Z,91.53
2016-08-19T07:11:56.547Z,91.53
2016-08-19T07:12:56.542Z,91.15
2016-08-19T07:13:57.236Z,91.82
2016-08-19T07:14:56.526Z,92.11
2016-08-19T07:15:56.508Z,92.11
2016-08-19T07:16:56.500Z,92.49
2016-08-19T07:17:57.203Z,92.44
2016-08-19T07:18:57.190Z,93.11
2016-08-19T07:19:56.472Z,92.15
2016-08-19T07:20:56.465Z,92.25
2016-08-19T07:21:56.456Z,92.54
2016-08-19T07:22:56.448Z,93.21
2016-08-19T07:23:56.438Z,92.63
2016-08-19T07:24:56.429Z,92.73
2016-08-19T07:25:56.420Z,92.06
2016-08-19T07:26:56.410Z,91.77
2016-08-19T07:27:56.399Z,91.49
2016-08-19T07:28:56.394Z,91.39
2016-08-19T07:29:56.386Z,91.34
2016-08-19T07:30:57.084Z,90.86
2016-08-19T07:31:56.366Z,90.76
2016-08-19T07:32:56.359Z,89.42
2016-08-19T07:33:56.353Z,89.32
2016-08-19T07:34:56.340Z,89.04
2016-08-19T07:35:56.329Z,88.46
2016-08-19T07:36:57.028Z,87.79
2016-08-19T07:37:56.317Z,87.98
2016-08-19T07:38:56.305Z,87.6
2016-08-19T07:39:56.303Z,87.41
2016-08-19T07:40:56.993Z,85.97
2016-08-19T07:41:56.281Z,85.3
2016-08-19T07:42:56.978Z,86.4
2016-08-19T07:43:56.971Z,86.58
2016-08-19T07:44:56.960Z,86.3
2016-08-19T07:45:56.953Z,86.68
2016-08-19T07:46:56.235Z,85.25
2016-08-19T07:47:56.936Z,85.15
2016-08-19T07:48:56.223Z,85.92
2016-08-19T07:49:56.211Z,85.82
2016-08-19T07:50:56.205Z,86.01
2016-08-19T07:51:56.194Z,85.72
2016-08-19T07:52:56.184Z,85.53
2016-08-19T07:53:56.881Z,86.15
2016-08-19T07:54:56.874Z,85.77
2016-08-19T07:55:56.160Z,85.28
2016-08-19T07:56:56.863Z,84.86
2016-08-19T07:57:56.146Z,85.28
2016-08-19T07:58:56.134Z,85.96
2016-08-19T07:59:56.125Z,85
2016-08-19T08:00:56.826Z,83.94
2016-08-19T08:01:56.111Z,83.47
2016-08-19T08:02:56.810Z,84.33
2016-08-19T08:03:56.098Z,84.52
2016-08-19T08:04:56.794Z,84.33
2016-08-19T08:05:56.075Z,83.7
2016-08-19T08:06:56.077Z,82.16
2016-08-19T08:07:56.066Z,82.35
2016-08-19T08:08:56.761Z,82.45
2016-08-19T08:09:56.045Z,82.74
2016-08-19T08:10:56.037Z,82.64
2016-08-19T08:11:56.038Z,82.35
2016-08-19T08:12:56.727Z,82.64
2016-08-19T08:13:56.015Z,81.4
2016-08-19T08:14:56.714Z,80.19
2016-08-19T08:15:55.997Z,79.9
2016-08-19T08:16:55.993Z,78.36
2016-08-19T08:17:55.985Z,78.55
2016-08-19T08:18:56.683Z,77.34
2016-08-19T08:19:56.677Z,74.54
2016-08-19T08:20:55.959Z,68.19
2016-08-19T08:21:55.956Z,66.36
2016-08-19T08:22:56.665Z,62.76
2016-08-19T08:23:55.950Z,59.44
2016-08-19T08:24:56.648Z,58.72
2016-08-19T08:25:56.640Z,57.04
2016-08-19T08:26:55.932Z,55.49
2016-08-19T08:27:55.926Z,54.23
2016-08-19T08:28:55.919Z,52.29
2016-08-19T08:29:55.918Z,53.55
2016-08-19T08:30:55.911Z,52.71
2016-08-19T08:31:55.910Z,52.25
2016-08-19T08:32:56.611Z,53.39
2016-08-19T08:33:55.899Z,53.94
2016-08-19T08:34:56.600Z,54.21
2016-08-19T08:35:56.600Z,53.31
2016-08-19T08:36:55.885Z,55.24
2016-08-19T08:37:55.880Z,52.89
2016-08-19T08:38:55.879Z,53.28
2016-08-19T08:39:55.871Z,53.96
2016-08-19T08:40:56.575Z,52.92
2016-08-19T08:41:55.863Z,51.42
2016-08-19T08:42:56.567Z,51.09
2016-08-19T08:43:55.856Z,50.14
2016-08-19T08:44:56.559Z,49.75
2016-08-19T08:45:55.849Z,52.12
2016-08-19T08:46:56.550Z,51.35
2016-08-19T08:47:56.553Z,53.43
2016-08-19T08:48:56.545Z,52.73
2016-08-19T08:49:56.539Z,53.59
2016-08-19T08:50:55.829Z,54.93
2016-08-19T08:51:56.529Z,55.09
2016-08-19T08:52:56.527Z,56.05
2016-08-19T08:53:56.536Z,55.96
2016-08-19T08:54:55.810Z,55.93
2016-08-19T08:55:56.513Z,57.21
2016-08-19T08:56:56.002Z,56.35
2016-08-19T08:57:55.795Z,56.25
2016-08-19T08:58:55.792Z,56.25
2016-08-19T08:59:55.787Z,55.96
2016-08-19T09:00:55.782Z,54.22
2016-08-19T09:01:56.482Z,55.57
2016-08-19T09:02:55.769Z,56.73
2016-08-19T09:03:55.768Z,56.83
2016-08-19T09:04:55.762Z,56.93
2016-08-19T09:05:56.465Z,58.37
2016-08-19T09:06:55.751Z,58.64
2016-08-19T09:07:55.745Z,59.12
2016-08-19T09:08:55.741Z,59.44
2016-08-19T09:09:55.736Z,58.64
2016-08-19T09:10:56.441Z,57.77
2016-08-19T09:11:55.723Z,56.99
2016-08-19T09:12:55.721Z,58.61
2016-08-19T09:13:55.718Z,58.42
2016-08-19T09:14:56.417Z,57.29
2016-08-19T09:15:55.708Z,56.54
2016-08-19T09:16:55.701Z,54.44
2016-08-19T09:17:56.401Z,54.44
2016-08-19T09:18:55.692Z,55.57
2016-08-19T09:19:55.686Z,54.61
2016-08-19T09:20:56.388Z,55.55
2016-08-19T09:21:55.789Z,56.8
2016-08-19T09:22:55.670Z,56.99
2016-08-19T09:23:55.666Z,57.19
2016-08-19T09:24:55.659Z,57.64
2016-08-19T09:25:55.657Z,58.7
2016-08-19T09:26:56.356Z,56.77
2016-08-19T09:27:55.646Z,57.45
2016-08-19T09:28:55.644Z,55.04
2016-08-19T09:29:55.633Z,58.32
2016-08-19T09:30:55.627Z,56.96
2016-08-19T09:31:55.624Z,57.16
2016-08-19T09:32:55.619Z,57.45
2016-08-19T09:33:55.614Z,56.87
2016-08-19T09:34:56.313Z,56.58
2016-08-19T09:35:55.603Z,56.74
2016-08-19T09:36:55.598Z,56.46
2016-08-19T09:37:55.590Z,58.29
2016-08-19T09:38:55.586Z,58
2016-08-19T09:39:55.578Z,57.45
2016-08-19T09:40:55.582Z,57.81
2016-08-19T09:41:55.576Z,56.65
2016-08-19T09:42:56.270Z,57.32
2016-08-19T09:43:56.272Z,57.42
2016-08-19T09:44:56.265Z,56.96
2016-08-19T09:45:55.565Z,57.45
2016-08-19T09:46:56.250Z,57.52
2016-08-19T09:47:56.251Z,58
2016-08-19T09:48:56.238Z,57.45
2016-08-19T09:49:56.234Z,58.12
2016-08-19T09:50:55.521Z,57.16
2016-08-19T09:51:55.515Z,56.1
2016-08-19T09:52:56.221Z,57.06
2016-08-19T09:53:55.505Z,55.23
2016-08-19T09:54:55.499Z,55.23
2016-08-19T09:55:55.494Z,55.23
2016-08-19T09:56:56.201Z,55.23
2016-08-19T09:57:55.483Z,54.94
2016-08-19T09:58:55.476Z,54.17
2016-08-19T09:59:55.468Z,53.11
2016-08-19T10:00:55.486Z,54.84
2016-08-19T10:01:56.169Z,54.27
2016-08-19T10:02:55.456Z,54.84
2016-08-19T10:03:55.451Z,54.1
2016-08-19T10:04:56.151Z,54.19
2016-08-19T10:05:55.441Z,53.91
2016-08-19T10:06:56.140Z,52.94
2016-08-19T10:07:56.134Z,52.26
2016-08-19T10:08:55.427Z,51.01
2016-08-19T10:09:56.124Z,51.01
2016-08-19T10:10:56.116Z,51.97
2016-08-19T10:11:55.406Z,53.13
2016-08-19T10:12:56.105Z,54.1
2016-08-19T10:13:55.395Z,53.23
2016-08-19T10:14:56.103Z,53.61
2016-08-19T10:15:55.385Z,53.23
2016-08-19T10:16:56.103Z,53.52
2016-08-19T10:17:55.374Z,51.81
2016-08-19T10:18:55.382Z,51.9
2016-08-19T10:19:55.364Z,50.74
2016-08-19T10:20:55.364Z,52
2016-08-19T10:21:55.355Z,50.07
2016-08-19T10:22:56.055Z,50.84
2016-08-19T10:23:55.339Z,49.51
2016-08-19T10:24:55.335Z,49.87
2016-08-19T10:25:55.334Z,51.35
2016-08-19T10:26:56.033Z,50.67
2016-08-19T10:27:56.025Z,50.76
2016-08-19T10:28:56.020Z,51.15
2016-08-19T10:29:56.017Z,51.25
2016-08-19T10:30:55.303Z,51.06
2016-08-19T10:31:56.016Z,50.86
2016-08-19T10:32:55.297Z,51.15
2016-08-19T10:33:55.996Z,51.25
2016-08-19T10:34:55.282Z,51.06
2016-08-19T10:35:55.278Z,50.4
2016-08-19T10:36:55.273Z,48.2
2016-08-19T10:37:55.975Z,47.72
2016-08-19T10:38:55.967Z,48.03
2016-08-19T10:39:55.255Z,48.52
2016-08-19T10:40:55.252Z,47.26
2016-08-19T10:41:55.258Z,45.73
2016-08-19T10:42:55.245Z,43.13
2016-08-19T10:43:55.948Z,42.17
2016-08-19T10:44:55.944Z,42.67
2016-08-19T10:45:55.241Z,43.16
2016-08-19T10:46:55.230Z,41.72
2016-08-19T10:47:55.225Z,41.92
2016-08-19T10:48:55.223Z,41.33
2016-08-19T10:49:55.221Z,42.5
2016-08-19T10:50:55.927Z,41.33
2016-08-19T10:51:55.216Z,41.64
2016-08-19T10:52:55.213Z,40.77
2016-08-19T10:53:55.918Z,41.26
2016-08-19T10:54:55.924Z,39.82
2016-08-19T10:55:55.928Z,41.3
2016-08-19T10:56:55.211Z,39.67
2016-08-19T10:57:55.201Z,37.06
2016-08-19T10:58:55.926Z,37.08
2016-08-19T10:59:55.202Z,38.83
2016-08-19T11:00:55.211Z,36.9
2016-08-19T11:01:55.206Z,37.68
2016-08-19T11:02:55.197Z,37.37
2016-08-19T11:03:55.201Z,37.76
2016-08-19T11:04:55.202Z,36.49
2016-08-19T11:05:55.216Z,39.43
2016-08-19T11:06:55.909Z,35.73
2016-08-19T11:07:55.916Z,35.15
2016-08-19T11:08:55.915Z,37.58
2016-08-19T11:09:55.200Z,36.53
2016-08-19T11:10:55.212Z,35.57
2016-08-19T11:11:55.204Z,37.91
2016-08-19T11:12:55.919Z,36.27
2016-08-19T11:13:55.916Z,35.88
2016-08-19T11:14:55.211Z,36.08
2016-08-19T11:15:55.215Z,35.88
2016-08-19T11:16:55.924Z,34.63
2016-08-19T11:17:55.936Z,35.51
2016-08-19T11:18:55.220Z,33.38
2016-08-19T11:19:55.927Z,34.57
2016-08-19T11:20:55.933Z,31.25
2016-08-19T11:21:55.935Z,32.32
2016-08-19T11:22:55.932Z,34.47
2016-08-19T11:23:55.232Z,34.5
2016-08-19T11:24:55.235Z,31.38
2016-08-19T11:25:55.461Z,33.05
2016-08-19T11:26:55.243Z,32.27
2016-08-19T11:27:55.239Z,31.01
2016-08-19T11:28:55.242Z,31.39
2016-08-19T11:29:55.248Z,31.1
2016-08-19T11:30:55.957Z,29.25
2016-08-19T11:31:55.964Z,31.51
2016-08-19T11:33:55.266Z,30.15
2016-08-19T11:34:55.264Z,31.62
2016-08-19T11:35:55.266Z,31.52
2016-08-19T11:36:55.977Z,31.14
2016-08-19T11:37:56.001Z,30.46
2016-08-19T11:38:56.000Z,28.89
2016-08-19T11:39:55.992Z,28.79
2016-08-19T11:40:55.285Z,29.08
2016-08-19T11:41:55.291Z,29.66
2016-08-19T11:42:56.006Z,29.07
2016-08-19T11:43:56.005Z,28.39
2016-08-19T11:44:55.305Z,27.21
2016-08-19T11:45:56.019Z,30.04
2016-08-19T11:46:56.022Z,29.27
2016-08-19T11:47:56.042Z,30.04
2016-08-19T11:48:56.029Z,28.19
2016-08-19T11:49:55.330Z,30.74
2016-08-19T11:50:56.032Z,31.24
2016-08-19T11:51:55.333Z,30.26
2016-08-19T11:52:55.338Z,29.87
2016-08-19T11:53:56.044Z,28.31
2016-08-19T11:54:55.341Z,28.61
2016-08-19T11:55:55.348Z,30.67
2016-08-19T11:56:55.352Z,28.03
2016-08-19T11:57:56.064Z,26.56
2016-08-19T11:58:55.363Z,26.86
2016-08-19T11:59:55.372Z,28.23
2016-08-19T12:00:56.073Z,26.46
2016-08-19T12:01:55.376Z,26.38
2016-08-19T12:02:56.097Z,25.71
2016-08-19T12:03:55.378Z,28.26
2016-08-19T12:04:56.097Z,25.42
2016-08-19T12:05:56.104Z,25.92
2016-08-19T12:06:55.396Z,27.19
2016-08-19T12:07:55.398Z,25.54
2016-08-19T12:08:55.406Z,27.71
2016-08-19T12:09:56.134Z,27.04
2016-08-19T12:10:55.414Z,24.68
2016-08-19T12:11:56.125Z,23.69
2016-08-19T12:12:55.423Z,23.5
2016-08-19T12:13:55.439Z,26.14
2016-08-19T12:14:55.438Z,26.92
2016-08-19T12:15:55.444Z,24.77
2016-08-19T12:16:56.156Z,22.72
2016-08-19T12:17:55.461Z,22.82
2016-08-19T12:18:56.167Z,25.59
2016-08-19T12:19:55.467Z,26.18
2016-08-19T12:20:56.177Z,24.7
2016-08-19T12:21:55.473Z,21.45
2016-08-19T12:22:55.479Z,20.78
2016-08-19T12:23:55.486Z,21.94
2016-08-19T12:24:56.201Z,21.55
2016-08-19T12:25:56.204Z,23.32
2016-08-19T12:26:56.214Z,24.8
2016-08-19T12:27:55.510Z,22.83
2016-08-19T12:28:56.226Z,22.15
2016-08-19T12:29:56.279Z,20.88
2016-08-19T12:30:55.529Z,21.37
2016-08-19T12:31:56.242Z,23.05
2016-08-19T12:32:55.547Z,22.36
2016-08-19T12:33:55.544Z,21.48
2016-08-19T12:34:55.560Z,20.2
2016-08-19T12:35:56.274Z,20.88
2016-08-19T12:36:55.561Z,22.35
2016-08-19T12:37:55.567Z,23.35
2016-08-19T12:38:55.572Z,21.67
2016-08-19T12:39:55.577Z,21.86
2016-08-19T12:40:55.584Z,21.66
2016-08-19T12:41:55.593Z,22.24
2016-08-19T12:42:56.303Z,23.73
2016-08-19T12:43:56.307Z,22.16
2016-08-19T12:44:55.604Z,21.37
2016-08-19T12:45:56.323Z,21.97
2016-08-19T12:46:55.618Z,22.77
2016-08-19T12:47:56.331Z,20.99
2016-08-19T12:48:55.635Z,24.05
2016-08-19T12:49:55.657Z,20.51
2016-08-19T12:50:56.346Z,22.37
2016-08-19T12:51:55.671Z,20.4
2016-08-19T12:52:55.657Z,20.7
2016-08-19T12:53:55.662Z,20.79
2016-08-19T12:54:55.662Z,22.27
2016-08-19T12:55:55.679Z,24.24
2016-08-19T12:56:56.385Z,23.36